Time;durP1;ratioP1;P1;durP2;ratioP2;P2;SDS_P1;SDS_P2;PMS_P1;PMS_P2;Temp;Humidity;BMP_temperature;BMP_pressure;BME280_temperature;BME280_humidity;BME280_pressure;Samples;Min_cycle;Max_cycle;Signal;HPM_P1;HPM_P2
2022/05/11 00:00:59;;;;;;;2.92;2.10;;;;;;;18.31;49.79;101228.41;4971097;28;20042;-88
2022/05/11 00:03:25;;;;;;;4.47;2.10;;;;;;;18.25;50.26;101226.16;4991169;28;20547;-88
2022/05/11 00:05:51;;;;;;;5.47;2.53;;;;;;;18.24;49.67;101219.09;4971163;28;20390;-88
2022/05/11 00:08:17;;;;;;;3.45;2.20;;;;;;;18.24;49.42;101216.41;4992196;28;20040;-88
2022/05/11 00:10:43;;;;;;;6.40;2.22;;;;;;;18.26;50.32;101222.53;4991340;28;20034;-88
2022/05/11 00:13:08;;;;;;;4.40;2.30;;;;;;;18.25;49.70;101218.13;4987958;28;20034;-88
2022/05/11 00:15:34;;;;;;;3.78;2.15;;;;;;;18.22;50.89;101226.34;4987482;28;20040;-88
2022/05/11 00:18:00;;;;;;;4.68;2.45;;;;;;;18.19;50.56;101219.41;4992355;28;20026;-88
2022/05/11 00:20:25;;;;;;;6.65;2.50;;;;;;;18.06;50.63;101195.25;4991992;28;20650;-88
2022/05/11 00:22:58;;;;;;;5.93;2.15;;;;;;;18.01;50.34;101197.38;4990217;28;20490;-88
2022/05/11 00:25:25;;;;;;;3.15;2.17;;;;;;;18.13;50.21;101213.56;4990264;28;20038;-88
2022/05/11 00:27:52;;;;;;;2.70;2.30;;;;;;;18.06;50.25;101205.97;4977954;28;20391;-88
2022/05/11 00:30:18;;;;;;;5.20;2.60;;;;;;;18.02;49.75;101201.75;4979599;28;20547;-88
2022/05/11 00:32:44;;;;;;;4.85;2.40;;;;;;;18.03;49.94;101189.25;4975298;28;20046;-89
2022/05/11 00:35:09;;;;;;;8.93;2.42;;;;;;;18.10;49.71;101193.25;4993213;28;20101;-88
2022/05/11 00:37:34;;;;;;;7.03;2.65;;;;;;;18.09;49.59;101192.41;4992414;28;20109;-88
2022/05/11 00:40:00;;;;;;;3.08;2.20;;;;;;;18.16;49.45;101194.66;4994369;28;20041;-89
2022/05/11 00:42:25;;;;;;;9.55;2.25;;;;;;;18.17;49.23;101186.50;4992545;28;20026;-88
2022/05/11 00:44:54;;;;;;;4.80;2.47;;;;;;;18.08;49.29;101166.56;4970064;28;20499;-88
2022/05/11 00:47:30;;;;;;;3.63;2.20;;;;;;;18.15;49.07;101176.88;4987293;28;20018;-88
2022/05/11 00:50:23;;;;;;;2.13;1.90;;;;;;;18.17;48.44;101175.81;4991822;28;20352;-89
2022/05/11 00:53:11;;;;;;;2.35;2.15;;;;;;;18.21;48.53;101173.78;4991611;28;20320;-88
2022/05/11 00:55:41;;;;;;;4.30;2.42;;;;;;;18.04;48.44;101156.16;4989939;28;21630;-88
2022/05/11 00:58:14;;;;;;;2.95;2.08;;;;;;;18.02;48.57;101155.44;4973536;28;20469;-88
2022/05/11 01:00:43;;;;;;;3.00;1.90;;;;;;;18.05;49.09;101157.91;4979236;28;20133;-88
2022/05/11 01:03:13;;;;;;;6.70;2.75;;;;;;;18.15;49.35;101175.06;4975031;28;20026;-88
2022/05/11 01:05:43;;;;;;;4.15;2.20;;;;;;;18.12;49.15;101163.69;4996337;28;20070;-88
2022/05/11 01:08:09;;;;;;;4.43;2.50;;;;;;;18.05;49.26;101156.09;4971067;28;20036;-88
2022/05/11 01:10:34;;;;;;;9.35;2.67;;;;;;;18.15;49.21;101160.84;4993211;28;20030;-88
2022/05/11 01:13:04;;;;;;;5.30;2.50;;;;;;;18.09;49.53;101156.72;4995912;28;20037;-88
2022/05/11 01:15:32;;;;;;;4.30;2.40;;;;;;;18.05;49.42;101163.25;4976996;28;20533;-88
2022/05/11 01:17:58;;;;;;;4.10;2.42;;;;;;;17.99;49.68;101147.59;4989619;28;20374;-88
2022/05/11 01:20:25;;;;;;;4.68;2.10;;;;;;;17.98;49.37;101135.19;4974780;28;20085;-88
2022/05/11 01:23:06;;;;;;;5.22;2.17;;;;;;;17.99;49.84;101139.56;4994476;28;20026;-88
2022/05/11 01:25:31;;;;;;;4.05;1.83;;;;;;;17.84;49.68;101115.56;4994040;28;20045;-89
2022/05/11 01:28:05;;;;;;;3.60;2.17;;;;;;;17.88;50.17;101123.38;4995209;28;20029;-89
2022/05/11 01:30:30;;;;;;;3.72;2.15;;;;;;;17.94;50.22;101144.38;4997899;28;20049;-88
2022/05/11 01:32:55;;;;;;;3.92;2.38;;;;;;;17.96;51.54;101137.97;4974286;28;20034;-88
2022/05/11 01:35:36;;;;;;;4.60;2.33;;;;;;;17.99;50.90;101139.56;4993091;28;20492;-88
2022/05/11 01:38:13;;;;;;;7.72;2.47;;;;;;;18.05;50.15;101139.19;4973730;28;20063;-87
2022/05/11 01:40:39;;;;;;;4.05;2.40;;;;;;;18.03;50.59;101133.91;4974753;28;20275;-88
2022/05/11 01:43:05;;;;;;;3.35;2.47;;;;;;;18.10;51.10;101142.41;4971337;28;20997;-88
2022/05/11 01:45:30;;;;;;;4.63;2.80;;;;;;;18.03;52.54;101127.72;4974412;28;20485;-88
2022/05/11 01:47:56;;;;;;;5.30;2.67;;;;;;;18.04;51.82;101138.28;4991429;28;20033;-88
2022/05/11 01:50:22;;;;;;;6.00;2.55;;;;;;;17.98;51.01;101129.84;4975630;28;20416;-88
2022/05/11 01:52:47;;;;;;;4.95;3.00;;;;;;;18.01;52.90;101127.81;4995531;28;20527;-88
2022/05/11 01:55:13;;;;;;;2.35;2.15;;;;;;;17.94;51.77;101112.28;4992535;28;20109;-88
2022/05/11 01:57:39;;;;;;;7.03;2.40;;;;;;;17.91;52.06;101115.16;4992705;28;20041;-89
2022/05/11 02:00:06;;;;;;;5.30;3.10;;;;;;;17.96;53.60;101129.09;4976260;28;20552;-88
2022/05/11 02:02:31;;;;;;;2.58;2.35;;;;;;;17.99;52.03;101135.06;4990825;28;20378;-88
2022/05/11 02:07:49;;;;;;;4.82;2.50;;;;;;;17.83;54.48;101121.88;4993265;28;20485;-88
2022/05/11 02:10:19;;;;;;;3.20;2.58;;;;;;;17.79;52.09;101125.69;4976743;28;20030;-88
2022/05/11 02:12:45;;;;;;;4.80;2.75;;;;;;;17.75;52.56;101131.34;4972517;28;20386;-88
2022/05/11 02:15:11;;;;;;;6.75;2.90;;;;;;;17.62;52.09;101106.34;4991931;28;20034;-89
2022/05/11 02:17:36;;;;;;;4.47;2.78;;;;;;;17.68;52.48;101120.19;4993273;28;20034;-88
2022/05/11 02:20:02;;;;;;;5.28;2.67;;;;;;;17.74;52.12;101114.44;4977068;28;20018;-89
2022/05/11 02:22:28;;;;;;;6.05;2.88;;;;;;;17.65;52.89;101107.00;4991777;28;20038;-88
2022/05/11 02:24:53;;;;;;;4.22;2.85;;;;;;;17.77;51.75;101119.59;4993106;28;20362;-88
2022/05/11 02:27:18;;;;;;;2.63;2.42;;;;;;;17.72;51.66;101116.34;4988241;28;20054;-88
2022/05/11 02:29:44;;;;;;;5.43;2.90;;;;;;;17.63;52.00;101103.59;4992262;28;20064;-88
2022/05/11 02:32:09;;;;;;;4.03;2.55;;;;;;;17.59;52.30;101110.09;4967705;28;20557;-88
2022/05/11 02:37:18;;;;;;;5.45;3.20;;;;;;;17.63;51.35;101116.09;4993658;28;20043;-88
2022/05/11 02:39:43;;;;;;;5.32;3.03;;;;;;;17.59;52.04;101107.41;4997119;28;20614;-88
2022/05/11 02:42:09;;;;;;;4.05;2.55;;;;;;;17.63;52.45;101095.56;4991641;28;20129;-88
2022/05/11 02:44:34;;;;;;;3.88;3.15;;;;;;;17.65;51.87;101103.47;4990216;28;20042;-89
2022/05/11 02:46:59;;;;;;;7.63;2.75;;;;;;;17.66;51.86;101108.72;4972931;28;20030;-89
2022/05/11 02:49:25;;;;;;;4.68;2.70;;;;;;;17.61;51.68;101108.16;4971935;28;20030;-88
2022/05/11 02:51:50;;;;;;;3.47;2.55;;;;;;;17.60;51.84;101111.78;4974859;28;20034;-88
2022/05/11 02:54:16;;;;;;;5.70;2.60;;;;;;;17.56;52.19;101107.59;4973831;28;20485;-88
2022/05/11 02:56:41;;;;;;;5.20;2.95;;;;;;;17.55;51.77;101103.22;4988111;28;20331;-88
2022/05/11 02:59:08;;;;;;;6.00;2.97;;;;;;;17.58;51.49;101111.06;4992888;28;20046;-88
2022/05/11 03:01:33;;;;;;;5.43;2.90;;;;;;;17.55;52.08;101103.22;4990352;28;20150;-88
2022/05/11 03:03:58;;;;;;;6.25;2.97;;;;;;;17.63;52.23;101116.09;4993800;28;20038;-88
2022/05/11 03:06:24;;;;;;;5.15;2.72;;;;;;;17.60;52.40;101106.44;4971782;28;20144;-88
2022/05/11 03:08:49;;;;;;;3.80;2.83;;;;;;;17.63;52.67;101100.91;4976088;28;20072;-88
2022/05/11 03:11:15;;;;;;;3.83;2.70;;;;;;;17.71;52.18;101109.25;4975623;28;20021;-88
2022/05/11 03:13:40;;;;;;;4.30;2.50;;;;;;;17.64;52.46;101096.41;4974975;28;20589;-88
2022/05/11 03:16:06;;;;;;;4.18;2.80;;;;;;;17.56;52.03;101086.22;4987159;28;20042;-88
2022/05/11 03:18:31;;;;;;;5.40;2.90;;;;;;;17.54;52.59;101082.78;4972425;28;20027;-88
2022/05/11 03:20:58;;;;;;;5.97;2.85;;;;;;;17.51;52.45;101089.19;4988954;28;20038;-88
2022/05/11 03:23:25;;;;;;;2.88;2.55;;;;;;;17.47;52.21;101082.31;4993563;28;20118;-88
2022/05/11 03:25:51;;;;;;;3.88;2.50;;;;;;;17.45;52.51;101081.56;4975312;28;20081;-89
2022/05/11 03:28:16;;;;;;;4.80;2.20;;;;;;;17.52;52.41;101077.53;4996096;28;20425;-88
2022/05/11 03:30:41;;;;;;;4.40;2.20;;;;;;;17.47;52.27;101073.44;4982484;28;20045;-88
2022/05/11 03:35:50;;;;;;;6.47;2.45;;;;;;;17.39;52.81;101065.06;4987587;28;20049;-89
2022/05/11 03:38:16;;;;;;;2.97;1.98;;;;;;;17.43;52.43;101087.97;4976367;28;20025;-88
2022/05/11 03:40:42;;;;;;;2.30;1.90;;;;;;;17.41;52.42;101080.06;4989637;28;20108;-89
2022/05/11 03:43:07;;;;;;;3.03;2.20;;;;;;;17.32;52.39;101060.13;4991246;28;20030;-88
2022/05/11 03:45:33;;;;;;;5.05;2.13;;;;;;;17.46;52.09;101074.41;4989712;28;20033;-89
2022/05/11 03:47:58;;;;;;;4.50;2.33;;;;;;;17.42;52.85;101076.41;4990838;28;20038;-88
2022/05/11 03:50:25;;;;;;;3.90;2.40;;;;;;;17.38;52.69;101066.88;4993326;28;20497;-89
2022/05/11 03:52:52;;;;;;;3.30;2.30;;;;;;;17.42;52.55;101067.53;4985714;28;20041;-88
2022/05/11 03:55:19;;;;;;;3.75;2.40;;;;;;;17.42;52.80;101064.88;4980005;28;20030;-88
2022/05/11 03:57:44;;;;;;;3.40;2.20;;;;;;;17.38;52.41;101052.66;4999543;28;20108;-89
2022/05/11 04:00:14;;;;;;;3.53;2.30;;;;;;;17.40;52.88;101067.66;4974997;28;20101;-88
2022/05/11 04:02:41;;;;;;;2.78;2.35;;;;;;;17.41;52.40;101065.84;4972774;28;20452;-89
2022/05/11 04:05:09;;;;;;;3.33;2.30;;;;;;;17.37;52.62;101062.50;4992528;28;20045;-88
2022/05/11 04:07:35;;;;;;;3.63;2.28;;;;;;;17.34;53.23;101065.34;4996148;28;20549;-88
2022/05/11 04:10:01;;;;;;;4.10;2.35;;;;;;;17.28;52.74;101055.06;4994835;28;20026;-88
2022/05/11 04:12:29;;;;;;;4.97;2.03;;;;;;;17.33;52.85;101067.19;4993556;28;20034;-88
2022/05/11 04:14:55;;;;;;;6.75;2.45;;;;;;;17.18;52.65;101035.25;4992087;28;20053;-88
2022/05/11 04:17:21;;;;;;;5.88;2.38;;;;;;;17.24;52.79;101043.72;4975173;28;20022;-88
2022/05/11 04:19:46;;;;;;;4.78;2.22;;;;;;;17.30;53.54;101054.03;4994969;28;20038;-88
2022/05/11 04:22:12;;;;;;;3.20;2.38;;;;;;;17.21;53.57;101051.09;4993565;28;20034;-88
2022/05/11 04:24:37;;;;;;;4.28;2.13;;;;;;;17.09;53.25;101053.59;4998664;28;20014;-88
2022/05/11 04:27:03;;;;;;;4.28;2.33;;;;;;;17.08;53.60;101056.38;4979151;28;20416;-88
2022/05/11 04:29:28;;;;;;;5.25;2.55;;;;;;;17.00;54.16;101050.66;4991451;28;20287;-88
2022/05/11 04:31:56;;;;;;;3.47;2.03;;;;;;;16.95;53.72;101050.94;4973422;28;20113;-88
2022/05/11 04:34:23;;;;;;;2.05;1.75;;;;;;;16.91;54.34;101045.88;4992684;28;20445;-88
2022/05/11 04:36:49;;;;;;;4.25;2.25;;;;;;;16.82;54.72;101041.97;4976460;28;20038;-88
2022/05/11 04:39:15;;;;;;;5.38;2.25;;;;;;;16.91;54.34;101056.56;4997546;28;20037;-88
2022/05/11 04:41:40;;;;;;;3.85;2.50;;;;;;;16.77;54.86;101036.94;4993829;28;20050;-88
2022/05/11 04:44:06;;;;;;;5.90;1.95;;;;;;;16.82;54.89;101044.66;4972965;28;20097;-88
2022/05/11 04:46:33;;;;;;;3.40;2.33;;;;;;;16.79;54.92;101051.06;4993147;28;20105;-89
2022/05/11 04:51:48;;;;;;;4.78;1.95;;;;;;;16.66;55.38;101043.88;4993053;28;20065;-88
2022/05/11 04:54:15;;;;;;;4.03;2.28;;;;;;;16.67;55.59;101053.59;4977570;28;20033;-88
2022/05/11 04:56:40;;;;;;;4.45;2.00;;;;;;;16.74;55.36;101057.63;4992818;28;20022;-88
2022/05/11 04:59:07;;;;;;;3.70;2.53;;;;;;;16.75;55.45;101054.88;4998693;28;20045;-88
2022/05/11 05:01:34;;;;;;;3.67;2.20;;;;;;;16.71;55.28;101037.28;4973614;28;20030;-89
2022/05/11 05:04:00;;;;;;;2.47;2.00;;;;;;;16.77;55.83;101052.09;4977549;28;20038;-88
2022/05/11 05:06:27;;;;;;;6.57;2.70;;;;;;;16.77;55.46;101052.94;4992501;28;20034;-88
2022/05/11 05:08:53;;;;;;;4.00;2.33;;;;;;;16.80;55.82;101062.59;4978650;28;20084;-88
2022/05/11 05:11:18;;;;;;;7.20;2.70;;;;;;;16.76;55.88;101050.38;4974395;28;20408;-89
2022/05/11 05:13:43;;;;;;;4.13;2.40;;;;;;;16.83;55.55;101052.59;4981892;28;20445;-88
2022/05/11 05:16:09;;;;;;;4.47;2.55;;;;;;;16.86;55.50;101048.00;4976759;28;20477;-88
2022/05/11 05:18:35;;;;;;;3.92;2.42;;;;;;;16.87;55.78;101045.22;4976421;28;20014;-89
2022/05/11 05:21:00;;;;;;;4.95;3.10;;;;;;;16.86;56.17;101051.53;4977511;28;20478;-89
2022/05/11 05:23:26;;;;;;;5.57;2.50;;;;;;;16.90;55.55;101045.03;4988385;28;20026;-88
2022/05/11 05:25:51;;;;;;;4.40;2.67;;;;;;;17.01;56.61;101068.38;4993698;28;20038;-88
2022/05/11 05:31:09;;;;;;;4.07;2.65;;;;;;;17.13;56.11;101064.94;4992986;28;20073;-88
2022/05/11 05:33:36;;;;;;;3.40;2.50;;;;;;;17.21;55.07;101075.16;4973463;28;20030;-88
2022/05/11 05:36:03;;;;;;;2.75;2.40;;;;;;;17.10;54.85;101062.44;4993613;28;20038;-88
2022/05/11 05:38:29;;;;;;;5.45;2.47;;;;;;;17.28;54.88;101077.31;4993175;28;20301;-89
2022/05/11 05:40:55;;;;;;;5.53;2.45;;;;;;;17.31;54.69;101071.78;4972978;28;20069;-88
2022/05/11 05:43:24;;;;;;;2.70;2.33;;;;;;;17.37;54.50;101073.19;4990883;28;20045;-89
2022/05/11 05:45:54;;;;;;;3.40;2.53;;;;;;;17.33;54.79;101053.81;4970803;28;20057;-89
2022/05/11 05:48:21;;;;;;;3.97;2.42;;;;;;;17.38;54.69;101064.19;4995148;28;20042;-89
2022/05/11 05:50:47;;;;;;;4.28;2.78;;;;;;;17.48;53.95;101080.50;4990805;28;20052;-88
2022/05/11 05:53:14;;;;;;;3.55;2.38;;;;;;;17.45;53.42;101070.88;4992169;28;20385;-88
2022/05/11 05:55:40;;;;;;;6.40;2.70;;;;;;;17.44;53.42;101058.47;4988778;28;20038;-88
2022/05/11 05:58:06;;;;;;;3.33;2.45;;;;;;;17.44;53.96;101055.81;4992714;28;20448;-88
2022/05/11 06:00:31;;;;;;;6.03;2.72;;;;;;;17.59;53.54;101078.84;4990778;28;20034;-89
2022/05/11 06:02:57;;;;;;;4.85;2.38;;;;;;;17.65;53.64;101082.94;4973802;28;20066;-89
2022/05/11 06:05:22;;;;;;;7.28;2.75;;;;;;;17.68;53.36;101088.09;4972621;28;20038;-88
2022/05/11 06:07:48;;;;;;;3.55;2.58;;;;;;;17.56;52.63;101067.50;4990523;28;20096;-88
2022/05/11 06:10:13;;;;;;;2.95;1.90;;;;;;;17.72;53.06;101081.59;4989215;28;20034;-88
2022/05/11 06:12:39;;;;;;;4.80;2.20;;;;;;;17.71;51.73;101074.50;4988221;28;20036;-88
2022/05/11 06:15:05;;;;;;;4.75;2.30;;;;;;;17.79;52.50;101084.72;4988745;28;20026;-88
2022/05/11 06:17:32;;;;;;;3.33;1.80;;;;;;;17.76;52.75;101083.09;4989770;28;20037;-89
2022/05/11 06:19:58;;;;;;;5.35;2.05;;;;;;;17.74;51.94;101070.81;4973859;28;20080;-88
2022/05/11 06:22:25;;;;;;;4.68;2.20;;;;;;;17.79;52.00;101085.59;4990449;28;20060;-88
2022/05/11 06:24:50;;;;;;;5.90;2.50;;;;;;;17.84;51.77;101079.94;4990430;28;20391;-89
2022/05/11 06:27:23;;;;;;;6.18;2.10;;;;;;;17.86;51.37;101080.69;4973991;28;20026;-88
2022/05/11 06:29:57;;;;;;;2.67;1.70;;;;;;;17.93;51.28;101073.97;4972845;28;20413;-88
2022/05/11 06:32:22;;;;;;;6.15;2.50;;;;;;;17.94;50.21;101062.28;4981650;28;20081;-89
2022/05/11 06:34:49;;;;;;;3.53;2.03;;;;;;;18.03;48.57;101074.19;4971863;28;20030;-88
2022/05/11 06:37:15;;;;;;;5.53;1.88;;;;;;;18.07;49.14;101068.53;4989857;28;20513;-89
2022/05/11 06:39:41;;;;;;;2.63;2.00;;;;;;;18.19;49.77;101074.03;4989503;28;20018;-88
2022/05/11 06:42:12;;;;;;;2.97;1.77;;;;;;;18.21;49.41;101054.22;4985077;28;20030;-88
2022/05/11 06:44:37;;;;;;;3.53;1.98;;;;;;;18.27;49.68;101059.13;4984534;28;20136;-87
2022/05/11 06:47:04;;;;;;;4.82;2.00;;;;;;;18.44;48.00;101060.66;4987305;28;20093;-87
2022/05/11 06:49:29;;;;;;;9.75;1.80;;;;;;;18.44;48.00;101051.78;4974003;28;20029;-87
2022/05/11 06:51:55;;;;;;;4.88;2.03;;;;;;;18.66;48.62;101065.38;4985869;28;20038;-88
2022/05/11 06:59:48;;;;;;;3.35;2.05;;;;;;;18.91;48.10;101069.88;4989773;28;20120;-88
2022/05/11 07:02:13;;;;;;;2.72;2.13;;;;;;;18.97;47.56;101060.53;4988341;28;20129;-88
2022/05/11 07:04:40;;;;;;;8.77;2.50;;;;;;;18.99;47.54;101042.53;4987500;28;20041;-88
2022/05/11 07:07:06;;;;;;;8.23;2.13;;;;;;;19.15;46.49;101069.06;4976382;28;20077;-88
2022/05/11 07:09:33;;;;;;;6.45;2.50;;;;;;;19.23;47.40;101069.38;4972980;28;20545;-88
2022/05/11 07:12:19;;;;;;;8.93;2.30;;;;;;;19.11;47.42;101053.19;4984939;28;20126;-88
2022/05/11 07:14:47;;;;;;;6.65;2.13;;;;;;;19.27;46.53;101069.03;4963695;28;20030;-88
2022/05/11 07:17:23;;;;;;;3.97;2.50;;;;;;;19.30;46.31;101066.13;4985367;28;20060;-88
2022/05/11 07:19:48;;;;;;;4.57;1.92;;;;;;;19.37;47.13;101059.34;4988329;28;20084;-89
2022/05/11 07:22:15;;;;;;;7.32;2.40;;;;;;;19.32;46.46;101049.94;4985839;28;20038;-89
2022/05/11 07:24:42;;;;;;;6.63;2.40;;;;;;;19.42;46.63;101066.22;4970839;28;20022;-88
2022/05/11 07:27:08;;;;;;;4.85;2.08;;;;;;;19.59;46.30;101069.34;4992775;28;20390;-88
2022/05/11 07:29:33;;;;;;;9.05;2.53;;;;;;;19.70;46.29;101057.84;4988981;28;20029;-88
2022/05/11 07:31:58;;;;;;;5.22;2.50;;;;;;;19.91;46.04;101051.81;4990686;28;20033;-88
2022/05/11 07:34:24;;;;;;;7.45;2.60;;;;;;;20.27;46.02;101050.84;4992241;28;20037;-89
2022/05/11 07:36:54;;;;;;;7.13;2.08;;;;;;;20.64;44.63;101057.75;4990763;28;20502;-89
2022/05/11 07:39:23;;;;;;;6.38;2.47;;;;;;;21.03;43.93;101065.44;4990461;28;20034;-89
2022/05/11 07:41:49;;;;;;;4.05;1.90;;;;;;;21.36;42.68;101052.00;4986015;28;20505;-90
2022/05/11 07:44:15;;;;;;;7.50;2.13;;;;;;;21.54;41.53;101055.00;4994152;28;20025;-89
2022/05/11 07:46:41;;;;;;;4.32;2.15;;;;;;;21.60;41.54;101046.41;4975215;28;20154;-89
2022/05/11 07:49:07;;;;;;;2.50;1.95;;;;;;;21.49;41.55;101067.97;4994797;28;20109;-89
2022/05/11 07:51:32;;;;;;;9.00;2.53;;;;;;;21.49;40.58;101059.03;4990086;28;20026;-89
2022/05/11 07:53:58;;;;;;;3.92;2.15;;;;;;;21.71;39.89;101071.56;4989508;28;20120;-89
2022/05/11 08:01:54;;;;;;;6.97;2.30;;;;;;;22.40;38.64;101062.06;4995606;28;20127;-89
2022/05/11 08:04:20;;;;;;;6.03;1.95;;;;;;;22.48;37.72;101047.94;4990925;28;20132;-89
2022/05/11 08:06:46;;;;;;;6.50;2.20;;;;;;;22.75;38.45;101074.31;4978385;28;20448;-89
2022/05/11 08:09:13;;;;;;;4.97;2.33;;;;;;;22.83;37.30;101050.22;4994230;28;20124;-88
2022/05/11 08:11:39;;;;;;;4.55;2.20;;;;;;;22.54;38.98;101068.09;4976157;28;20514;-89
2022/05/11 08:14:04;;;;;;;5.68;2.33;;;;;;;22.85;38.04;101069.84;4995357;28;20031;-89
2022/05/11 08:16:29;;;;;;;14.18;2.47;;;;;;;23.40;36.55;101069.44;4974297;28;20026;-88
2022/05/11 08:18:55;;;;;;;6.68;2.47;;;;;;;23.61;35.96;101062.09;4994539;28;20018;-89
2022/05/11 08:21:20;;;;;;;6.63;2.55;;;;;;;24.01;35.57;101054.88;4977452;28;20030;-89
2022/05/11 08:23:47;;;;;;;3.70;1.83;;;;;;;24.11;34.62;101048.50;4992777;28;20026;-90
2022/05/11 08:26:12;;;;;;;7.43;2.17;;;;;;;23.79;35.58;101062.28;4991839;28;20486;-88
2022/05/11 08:28:38;;;;;;;5.53;1.98;;;;;;;23.87;35.46;101070.50;4993739;28;20034;-89
2022/05/11 08:33:47;;;;;;;8.32;2.33;;;;;;;24.55;34.18;101056.09;4994266;28;20068;-87
2022/05/11 08:36:20;;;;;;;4.65;2.15;;;;;;;24.62;33.50;101049.09;4993436;28;20117;-88
2022/05/11 08:38:49;;;;;;;7.70;2.63;;;;;;;25.15;33.33;101046.63;4992299;28;20046;-88
2022/05/11 08:41:29;;;;;;;8.10;2.42;;;;;;;25.44;32.27;101043.72;4975267;28;20473;-88
2022/05/11 08:44:08;;;;;;;8.57;2.42;;;;;;;25.58;32.51;101049.59;4993269;28;20031;-90
2022/05/11 08:46:35;;;;;;;5.53;2.00;;;;;;;25.50;32.16;101065.75;4973793;28;20709;-89
2022/05/11 08:49:21;;;;;;;8.18;2.35;;;;;;;25.41;32.04;101065.69;4977706;28;20030;-88
2022/05/11 08:51:52;;;;;;;7.13;2.75;;;;;;;25.00;33.18;101058.91;4988534;28;20035;-89
2022/05/11 08:54:29;;;;;;;5.13;2.22;;;;;;;25.49;32.36;101064.91;4992028;28;20022;-89
2022/05/11 08:56:55;;;;;;;8.77;2.47;;;;;;;26.00;30.93;101063.41;4988147;28;20022;-88
2022/05/11 08:59:25;;;;;;;7.65;2.55;;;;;;;25.76;31.21;101047.78;4994335;28;20594;-90
2022/05/11 09:02:00;;;;;;;4.25;2.17;;;;;;;26.02;31.83;101047.84;4969012;28;20026;-89
2022/05/11 09:04:56;;;;;;;7.97;2.50;;;;;;;26.46;30.98;101045.16;4992235;28;20053;-89
2022/05/11 09:07:22;;;;;;;6.30;2.55;;;;;;;26.42;29.96;101046.44;4972084;28;20410;-89
2022/05/11 09:09:48;;;;;;;5.80;2.40;;;;;;;26.45;30.68;101044.31;4971508;28;20031;-90
2022/05/11 09:12:13;;;;;;;7.43;2.75;;;;;;;26.36;30.58;101028.97;4977755;28;20044;-88
2022/05/11 09:14:41;;;;;;;6.57;2.55;;;;;;;26.68;29.60;101049.19;4974045;28;20060;-88
2022/05/11 09:17:24;;;;;;;6.22;2.67;;;;;;;26.00;31.42;101040.88;4988774;28;20061;-89
2022/05/11 09:20:01;;;;;;;4.18;2.30;;;;;;;26.18;32.05;101036.28;4989529;28;20025;-90
2022/05/11 09:22:27;;;;;;;8.75;2.63;;;;;;;26.39;31.11;101036.78;4993937;28;20030;-88
2022/05/11 09:24:59;;;;;;;6.80;2.70;;;;;;;26.57;31.17;101033.16;4987271;28;20052;-90
2022/05/11 09:27:36;;;;;;;4.00;2.35;;;;;;;26.47;31.18;101043.28;4973177;28;20475;-89
2022/05/11 09:30:20;;;;;;;7.25;2.40;;;;;;;26.01;32.66;101029.03;4976058;28;20033;-88
2022/05/11 09:32:52;;;;;;;6.90;3.03;;;;;;;25.75;31.96;101023.53;4967635;28;20134;-89
2022/05/11 09:35:36;;;;;;;5.57;3.38;;;;;;;25.62;32.33;101043.72;4968945;28;20030;-89
2022/05/11 09:38:17;;;;;;;7.45;3.28;;;;;;;25.41;32.61;101038.63;4973683;28;20570;-89
2022/05/11 09:40:57;;;;;;;8.10;2.80;;;;;;;25.54;32.88;101037.38;4977997;28;20046;-89
2022/05/11 09:43:35;;;;;;;7.20;2.75;;;;;;;25.26;32.38;101033.88;4990717;28;20042;-90
2022/05/11 09:46:18;;;;;;;6.38;2.72;;;;;;;25.33;33.20;101022.28;4987260;28;20030;-90
2022/05/11 09:49:04;;;;;;;8.88;3.15;;;;;;;25.38;33.07;101036.22;4965975;28;20030;-89
2022/05/11 09:51:36;;;;;;;10.27;2.88;;;;;;;25.09;34.26;101031.00;4991029;28;20034;-88
2022/05/11 09:54:06;;;;;;;6.38;2.90;;;;;;;24.77;34.35;101042.22;4990994;28;20489;-89
2022/05/11 09:56:33;;;;;;;8.52;3.15;;;;;;;24.79;34.49;101023.13;4987841;28;20038;-87
2022/05/11 09:59:24;;;;;;;7.65;2.58;;;;;;;25.07;33.93;101026.69;4973467;28;20678;-87
2022/05/11 10:02:12;;;;;;;6.70;2.70;;;;;;;24.96;34.14;101043.13;4970180;28;20034;-88
2022/05/11 10:04:46;;;;;;;8.13;3.20;;;;;;;24.44;34.83;101013.88;4989478;28;20093;-88
2022/05/11 10:07:15;;;;;;;6.93;3.15;;;;;;;24.88;34.60;101022.22;4973781;28;20418;-88
2022/05/11 10:09:48;;;;;;;6.57;2.63;;;;;;;24.99;34.37;101021.19;4989911;28;20379;-88
2022/05/11 10:12:18;;;;;;;7.90;2.95;;;;;;;24.89;33.76;101016.66;4969339;28;20033;-88
2022/05/11 10:23:47;;;;;;;5.68;2.90;;;;;;;25.38;33.94;101022.69;4990512;28;20117;-88
2022/05/11 10:26:28;;;;;;;5.18;2.70;;;;;;;24.45;34.79;101006.63;4952216;28;20598;-88
2022/05/11 10:29:17;;;;;;;6.93;3.40;;;;;;;24.59;34.56;101023.22;4981118;28;20042;-89
2022/05/11 10:32:09;;;;;;;7.18;2.95;;;;;;;24.74;34.49;101012.75;4985777;28;20046;-89
2022/05/11 10:34:56;;;;;;;11.82;3.30;;;;;;;24.28;34.99;101008.19;4979305;28;20533;-89
2022/05/11 10:37:56;;;;;;;7.75;3.00;;;;;;;24.65;34.91;101014.50;4965580;28;20045;-88
2022/05/11 10:40:36;;;;;;;6.15;3.25;;;;;;;24.90;33.67;100998.59;4969639;28;20030;-87
2022/05/11 10:43:07;;;;;;;6.20;3.13;;;;;;;25.14;33.61;101001.63;4985879;28;20038;-89
2022/05/11 10:46:02;;;;;;;7.80;3.13;;;;;;;24.92;34.30;100997.44;4989064;28;20053;-89
2022/05/11 10:48:41;;;;;;;6.57;3.10;;;;;;;25.02;34.76;100988.41;4979482;28;20039;-89
2022/05/11 10:51:17;;;;;;;4.88;2.60;;;;;;;25.23;34.61;100975.50;4987371;28;20544;-88
2022/05/11 10:54:09;;;;;;;5.57;2.63;;;;;;;25.39;33.58;100975.66;4988685;28;20494;-88
2022/05/11 10:56:46;;;;;;;9.68;2.97;;;;;;;25.40;32.73;100984.63;4983760;28;20133;-89
2022/05/11 10:59:25;;;;;;;6.28;2.72;;;;;;;25.75;33.60;100985.63;4991546;28;20107;-88
2022/05/11 11:02:22;;;;;;;5.05;2.55;;;;;;;26.10;31.99;100982.00;4987845;28;20035;-88
2022/05/11 11:05:16;;;;;;;5.10;2.50;;;;;;;26.29;31.73;100992.63;4968830;28;20026;-88
2022/05/11 11:08:02;;;;;;;4.32;2.10;;;;;;;26.05;31.47;100974.38;4986978;28;20037;-89
2022/05/11 11:10:49;;;;;;;6.43;2.67;;;;;;;25.54;31.84;100962.41;4990169;28;20520;-88
2022/05/11 11:13:15;;;;;;;6.25;2.97;;;;;;;26.05;33.10;100965.38;4987901;28;20939;-89
2022/05/11 11:15:44;;;;;;;10.67;3.23;;;;;;;26.37;32.26;100956.59;4993276;28;20131;-88
2022/05/11 11:18:14;;;;;;;6.55;2.63;;;;;;;26.76;31.00;100966.97;4971911;28;20285;-88
2022/05/11 11:20:45;;;;;;;4.55;2.45;;;;;;;26.75;30.45;100971.56;4990137;28;20029;-90
2022/05/11 11:23:28;;;;;;;8.68;2.92;;;;;;;26.90;30.30;100961.75;4972992;28;20121;-88
2022/05/11 11:26:40;;;;;;;8.02;2.88;;;;;;;27.63;30.59;100962.94;4970495;28;20085;-87
2022/05/11 11:29:06;;;;;;;4.05;2.20;;;;;;;27.51;29.31;100961.56;4987035;28;20569;-88
2022/05/11 11:31:31;;;;;;;6.30;2.30;;;;;;;26.98;29.90;100943.81;4985734;28;20492;-88
2022/05/11 11:34:05;;;;;;;6.20;2.60;;;;;;;26.95;30.75;100958.56;4992431;28;20285;-89
2022/05/11 11:36:34;;;;;;;8.48;2.47;;;;;;;27.00;30.02;100956.22;4972858;28;20262;-89
2022/05/11 11:39:03;;;;;;;5.75;2.70;;;;;;;27.45;30.04;100958.50;4990614;28;20034;-88
2022/05/11 11:41:31;;;;;;;4.63;2.30;;;;;;;27.67;30.06;100934.41;4990329;28;20030;-88
2022/05/11 11:44:04;;;;;;;8.88;3.13;;;;;;;27.73;30.23;100949.22;4970683;28;20033;-89
2022/05/11 11:46:40;;;;;;;8.63;2.83;;;;;;;27.39;29.10;100921.19;4990234;28;20077;-88
2022/05/11 11:49:11;;;;;;;6.00;2.60;;;;;;;27.55;29.99;100942.06;4993872;28;20490;-89
2022/05/11 11:51:52;;;;;;;6.33;2.93;;;;;;;27.43;29.80;100936.13;4988015;28;20117;-88
2022/05/11 11:54:48;;;;;;;5.32;2.67;;;;;;;27.30;29.17;100926.78;4991803;28;20053;-88
2022/05/11 11:57:22;;;;;;;10.02;2.60;;;;;;;27.40;28.28;100933.72;4986285;28;20034;-88
2022/05/11 12:00:05;;;;;;;6.32;2.35;;;;;;;27.53;29.32;100930.53;4986074;28;20059;-87
2022/05/11 12:02:34;;;;;;;7.78;2.45;;;;;;;27.73;27.71;100931.03;4967019;28;20038;-88
2022/05/11 12:05:39;;;;;;;4.45;2.30;;;;;;;27.66;28.16;100935.44;4987683;28;20029;-89
2022/05/11 12:16:53;;;;;;;6.57;2.58;;;;;;;28.14;27.96;100915.50;4984782;28;20142;-94
2022/05/11 12:19:20;;;;;;;4.80;2.38;;;;;;;28.22;27.40;100917.38;4993914;28;20567;-88
2022/05/11 12:22:12;;;;;;;6.90;2.45;;;;;;;27.78;28.48;100906.91;4975622;28;20046;-89